sensor_id;sensor_type;location;lat;lon;timestamp;P1;durP1;ratioP1;P2;durP2;ratioP2
33270;SDS011;53180;51.344;6.152;2022-09-30T00:01:36;2.60;;;2.40;;
33270;SDS011;53180;51.344;6.152;2022-09-30T00:04:06;2.75;;;2.50;;
33270;SDS011;53180;51.344;6.152;2022-09-30T00:06:37;5.80;;;2.75;;
33270;SDS011;53180;51.344;6.152;2022-09-30T00:09:05;2.90;;;2.60;;
33270;SDS011;53180;51.344;6.152;2022-09-30T00:11:34;3.50;;;3.20;;
33270;SDS011;53180;51.344;6.152;2022-09-30T00:14:05;3.42;;;3.13;;
33270;SDS011;53180;51.344;6.152;2022-09-30T00:16:36;2.60;;;2.40;;
33270;SDS011;53180;51.344;6.152;2022-09-30T00:19:04;3.10;;;2.80;;
33270;SDS011;53180;51.344;6.152;2022-09-30T00:21:33;3.67;;;3.30;;
33270;SDS011;53180;51.344;6.152;2022-09-30T00:24:01;4.18;;;3.50;;
33270;SDS011;53180;51.344;6.152;2022-09-30T00:26:31;7.88;;;3.47;;
33270;SDS011;53180;51.344;6.152;2022-09-30T00:29:01;5.80;;;3.30;;
33270;SDS011;53180;51.344;6.152;2022-09-30T00:31:31;3.72;;;3.30;;
33270;SDS011;53180;51.344;6.152;2022-09-30T00:34:02;4.07;;;3.30;;
33270;SDS011;53180;51.344;6.152;2022-09-30T00:36:35;3.95;;;3.55;;
33270;SDS011;53180;51.344;6.152;2022-09-30T00:39:10;4.63;;;3.15;;
33270;SDS011;53180;51.344;6.152;2022-09-30T00:41:41;4.00;;;3.58;;
33270;SDS011;53180;51.344;6.152;2022-09-30T00:53:09;2.92;;;2.72;;
33270;SDS011;53180;51.344;6.152;2022-09-30T00:55:44;3.55;;;3.25;;
33270;SDS011;53180;51.344;6.152;2022-09-30T00:58:19;3.25;;;2.95;;
33270;SDS011;53180;51.344;6.152;2022-09-30T01:00:56;3.20;;;2.95;;
33270;SDS011;53180;51.344;6.152;2022-09-30T01:03:27;3.60;;;3.30;;
33270;SDS011;53180;51.344;6.152;2022-09-30T01:05:59;3.75;;;3.35;;
33270;SDS011;53180;51.344;6.152;2022-09-30T01:08:29;4.00;;;3.58;;
33270;SDS011;53180;51.344;6.152;2022-09-30T01:10:58;3.30;;;3.00;;
33270;SDS011;53180;51.344;6.152;2022-09-30T01:13:33;3.38;;;3.08;;
33270;SDS011;53180;51.344;6.152;2022-09-30T01:19:04;3.30;;;3.08;;
33270;SDS011;53180;51.344;6.152;2022-09-30T01:22:04;3.95;;;3.53;;
33270;SDS011;53180;51.344;6.152;2022-09-30T01:25:04;3.80;;;3.40;;
33270;SDS011;53180;51.344;6.152;2022-09-30T01:28:27;4.10;;;3.53;;
33270;SDS011;53180;51.344;6.152;2022-09-30T01:31:15;4.57;;;3.67;;
33270;SDS011;53180;51.344;6.152;2022-09-30T01:33:58;4.60;;;3.10;;
33270;SDS011;53180;51.344;6.152;2022-09-30T01:36:38;4.03;;;3.42;;
33270;SDS011;53180;51.344;6.152;2022-09-30T01:39:27;3.50;;;3.13;;
33270;SDS011;53180;51.344;6.152;2022-09-30T01:42:07;2.78;;;2.58;;
33270;SDS011;53180;51.344;6.152;2022-09-30T01:44:47;3.05;;;2.83;;
33270;SDS011;53180;51.344;6.152;2022-09-30T01:47:26;3.85;;;3.13;;
33270;SDS011;53180;51.344;6.152;2022-09-30T01:50:00;3.72;;;3.25;;
33270;SDS011;53180;51.344;6.152;2022-09-30T01:52:34;3.67;;;3.30;;
33270;SDS011;53180;51.344;6.152;2022-09-30T01:55:11;3.60;;;3.30;;
33270;SDS011;53180;51.344;6.152;2022-09-30T01:57:45;6.18;;;3.53;;
33270;SDS011;53180;51.344;6.152;2022-09-30T02:00:20;3.47;;;3.17;;
33270;SDS011;53180;51.344;6.152;2022-09-30T02:02:52;5.90;;;3.13;;
33270;SDS011;53180;51.344;6.152;2022-09-30T02:05:25;5.25;;;3.80;;
33270;SDS011;53180;51.344;6.152;2022-09-30T02:08:03;3.40;;;3.10;;
33270;SDS011;53180;51.344;6.152;2022-09-30T02:10:37;17.15;;;4.07;;
33270;SDS011;53180;51.344;6.152;2022-09-30T02:13:14;4.15;;;3.80;;
33270;SDS011;53180;51.344;6.152;2022-09-30T02:15:47;3.90;;;3.45;;
33270;SDS011;53180;51.344;6.152;2022-09-30T02:18:23;3.45;;;3.08;;
33270;SDS011;53180;51.344;6.152;2022-09-30T02:20:59;3.20;;;2.90;;
33270;SDS011;53180;51.344;6.152;2022-09-30T02:23:30;3.45;;;3.08;;
33270;SDS011;53180;51.344;6.152;2022-09-30T02:26:07;3.30;;;3.00;;
33270;SDS011;53180;51.344;6.152;2022-09-30T02:28:43;3.47;;;3.17;;
33270;SDS011;53180;51.344;6.152;2022-09-30T02:31:16;3.30;;;3.00;;
33270;SDS011;53180;51.344;6.152;2022-09-30T02:33:51;4.00;;;3.38;;
33270;SDS011;53180;51.344;6.152;2022-09-30T02:36:25;3.70;;;3.40;;
33270;SDS011;53180;51.344;6.152;2022-09-30T02:38:58;3.63;;;3.33;;
33270;SDS011;53180;51.344;6.152;2022-09-30T02:41:32;3.38;;;3.08;;
33270;SDS011;53180;51.344;6.152;2022-09-30T02:44:07;3.63;;;3.28;;
33270;SDS011;53180;51.344;6.152;2022-09-30T02:46:38;5.22;;;3.47;;
33270;SDS011;53180;51.344;6.152;2022-09-30T02:49:20;3.60;;;3.30;;
33270;SDS011;53180;51.344;6.152;2022-09-30T02:51:59;4.13;;;3.47;;
33270;SDS011;53180;51.344;6.152;2022-09-30T02:54:40;3.88;;;3.45;;
33270;SDS011;53180;51.344;6.152;2022-09-30T02:57:18;3.08;;;2.88;;
33270;SDS011;53180;51.344;6.152;2022-09-30T02:59:57;3.63;;;3.33;;
33270;SDS011;53180;51.344;6.152;2022-09-30T03:02:28;2.88;;;2.67;;
33270;SDS011;53180;51.344;6.152;2022-09-30T03:04:58;4.38;;;3.50;;
33270;SDS011;53180;51.344;6.152;2022-09-30T03:07:26;3.10;;;2.90;;
33270;SDS011;53180;51.344;6.152;2022-09-30T03:09:55;3.60;;;3.30;;
33270;SDS011;53180;51.344;6.152;2022-09-30T03:12:31;3.42;;;3.13;;
33270;SDS011;53180;51.344;6.152;2022-09-30T03:15:16;3.55;;;3.00;;
33270;SDS011;53180;51.344;6.152;2022-09-30T03:18:04;3.30;;;3.00;;
33270;SDS011;53180;51.344;6.152;2022-09-30T03:20:52;3.08;;;2.88;;
33270;SDS011;53180;51.344;6.152;2022-09-30T03:23:38;3.05;;;2.83;;
33270;SDS011;53180;51.344;6.152;2022-09-30T03:26:35;3.25;;;2.95;;
33270;SDS011;53180;51.344;6.152;2022-09-30T03:29:13;8.20;;;2.90;;
33270;SDS011;53180;51.344;6.152;2022-09-30T03:31:52;4.03;;;3.63;;
33270;SDS011;53180;51.344;6.152;2022-09-30T03:34:37;5.18;;;3.63;;
33270;SDS011;53180;51.344;6.152;2022-09-30T03:37:26;4.03;;;3.70;;
33270;SDS011;53180;51.344;6.152;2022-09-30T03:40:00;4.47;;;3.55;;
33270;SDS011;53180;51.344;6.152;2022-09-30T03:42:35;3.75;;;3.35;;
33270;SDS011;53180;51.344;6.152;2022-09-30T03:45:10;3.00;;;2.80;;
33270;SDS011;53180;51.344;6.152;2022-09-30T03:47:45;3.15;;;2.95;;
33270;SDS011;53180;51.344;6.152;2022-09-30T03:50:19;3.35;;;2.88;;
33270;SDS011;53180;51.344;6.152;2022-09-30T03:52:51;3.72;;;3.42;;
33270;SDS011;53180;51.344;6.152;2022-09-30T03:55:19;3.90;;;3.60;;
33270;SDS011;53180;51.344;6.152;2022-09-30T03:57:49;15.07;;;5.53;;
33270;SDS011;53180;51.344;6.152;2022-09-30T04:00:19;3.45;;;3.15;;
33270;SDS011;53180;51.344;6.152;2022-09-30T04:02:48;3.55;;;3.25;;
33270;SDS011;53180;51.344;6.152;2022-09-30T04:05:22;6.15;;;4.00;;
33270;SDS011;53180;51.344;6.152;2022-09-30T04:07:52;4.10;;;3.78;;
33270;SDS011;53180;51.344;6.152;2022-09-30T04:10:20;3.85;;;3.55;;
33270;SDS011;53180;51.344;6.152;2022-09-30T04:12:50;4.53;;;4.07;;
33270;SDS011;53180;51.344;6.152;2022-09-30T04:15:19;4.28;;;3.88;;
33270;SDS011;53180;51.344;6.152;2022-09-30T04:17:48;4.47;;;3.38;;
33270;SDS011;53180;51.344;6.152;2022-09-30T04:20:16;4.30;;;3.90;;
33270;SDS011;53180;51.344;6.152;2022-09-30T04:22:44;4.68;;;3.92;;
33270;SDS011;53180;51.344;6.152;2022-09-30T04:25:14;4.72;;;4.20;;
33270;SDS011;53180;51.344;6.152;2022-09-30T04:27:42;4.13;;;3.80;;
33270;SDS011;53180;51.344;6.152;2022-09-30T04:30:10;5.45;;;4.28;;
33270;SDS011;53180;51.344;6.152;2022-09-30T04:32:40;4.57;;;4.18;;
33270;SDS011;53180;51.344;6.152;2022-09-30T04:35:10;3.90;;;3.50;;
33270;SDS011;53180;51.344;6.152;2022-09-30T04:37:42;3.83;;;3.42;;
33270;SDS011;53180;51.344;6.152;2022-09-30T04:40:11;3.90;;;3.60;;
33270;SDS011;53180;51.344;6.152;2022-09-30T04:42:42;3.55;;;3.25;;
33270;SDS011;53180;51.344;6.152;2022-09-30T04:45:11;11.93;;;7.65;;
33270;SDS011;53180;51.344;6.152;2022-09-30T04:47:41;7.15;;;6.13;;
33270;SDS011;53180;51.344;6.152;2022-09-30T04:50:11;5.35;;;4.60;;
33270;SDS011;53180;51.344;6.152;2022-09-30T04:52:40;5.60;;;4.55;;
33270;SDS011;53180;51.344;6.152;2022-09-30T04:55:10;5.38;;;4.15;;
33270;SDS011;53180;51.344;6.152;2022-09-30T04:57:42;4.38;;;3.97;;
33270;SDS011;53180;51.344;6.152;2022-09-30T05:00:11;4.93;;;4.15;;
33270;SDS011;53180;51.344;6.152;2022-09-30T05:02:41;7.55;;;5.10;;
33270;SDS011;53180;51.344;6.152;2022-09-30T05:05:10;7.93;;;4.80;;
33270;SDS011;53180;51.344;6.152;2022-09-30T05:07:38;8.38;;;4.97;;
33270;SDS011;53180;51.344;6.152;2022-09-30T05:10:07;6.57;;;4.88;;
33270;SDS011;53180;51.344;6.152;2022-09-30T05:12:36;7.22;;;4.90;;
33270;SDS011;53180;51.344;6.152;2022-09-30T05:15:08;4.45;;;3.72;;
33270;SDS011;53180;51.344;6.152;2022-09-30T05:20:05;3.90;;;3.50;;
33270;SDS011;53180;51.344;6.152;2022-09-30T05:25:05;4.15;;;3.67;;
33270;SDS011;53180;51.344;6.152;2022-09-30T05:27:34;4.82;;;4.00;;
33270;SDS011;53180;51.344;6.152;2022-09-30T05:30:03;4.35;;;3.90;;
33270;SDS011;53180;51.344;6.152;2022-09-30T05:32:33;4.90;;;4.28;;
33270;SDS011;53180;51.344;6.152;2022-09-30T05:35:02;6.30;;;5.00;;
33270;SDS011;53180;51.344;6.152;2022-09-30T05:37:30;5.10;;;4.43;;
33270;SDS011;53180;51.344;6.152;2022-09-30T05:40:00;5.10;;;4.20;;
33270;SDS011;53180;51.344;6.152;2022-09-30T05:42:29;11.48;;;4.38;;
33270;SDS011;53180;51.344;6.152;2022-09-30T05:45:02;6.10;;;5.03;;
33270;SDS011;53180;51.344;6.152;2022-09-30T05:47:31;5.15;;;4.45;;
33270;SDS011;53180;51.344;6.152;2022-09-30T05:50:01;4.97;;;4.32;;
33270;SDS011;53180;51.344;6.152;2022-09-30T05:52:30;7.40;;;4.40;;
33270;SDS011;53180;51.344;6.152;2022-09-30T05:54:58;4.95;;;4.03;;
33270;SDS011;53180;51.344;6.152;2022-09-30T05:57:27;5.65;;;4.50;;
33270;SDS011;53180;51.344;6.152;2022-09-30T05:59:55;6.07;;;4.50;;
33270;SDS011;53180;51.344;6.152;2022-09-30T06:02:24;5.40;;;4.80;;
33270;SDS011;53180;51.344;6.152;2022-09-30T06:04:54;5.35;;;4.72;;
33270;SDS011;53180;51.344;6.152;2022-09-30T06:07:22;5.50;;;4.63;;
33270;SDS011;53180;51.344;6.152;2022-09-30T06:09:50;6.22;;;5.00;;
33270;SDS011;53180;51.344;6.152;2022-09-30T06:12:19;4.90;;;4.40;;
33270;SDS011;53180;51.344;6.152;2022-09-30T06:14:47;8.23;;;5.25;;
33270;SDS011;53180;51.344;6.152;2022-09-30T06:17:15;5.75;;;4.32;;
33270;SDS011;53180;51.344;6.152;2022-09-30T06:19:44;6.00;;;4.88;;
33270;SDS011;53180;51.344;6.152;2022-09-30T06:22:14;7.32;;;4.72;;
33270;SDS011;53180;51.344;6.152;2022-09-30T06:24:42;5.88;;;4.40;;
33270;SDS011;53180;51.344;6.152;2022-09-30T06:27:11;5.78;;;4.70;;
33270;SDS011;53180;51.344;6.152;2022-09-30T06:29:39;5.30;;;4.15;;
33270;SDS011;53180;51.344;6.152;2022-09-30T06:32:07;6.40;;;4.80;;
33270;SDS011;53180;51.344;6.152;2022-09-30T06:34:36;4.93;;;4.30;;
33270;SDS011;53180;51.344;6.152;2022-09-30T06:37:04;6.63;;;4.68;;
33270;SDS011;53180;51.344;6.152;2022-09-30T06:39:34;5.90;;;4.57;;
33270;SDS011;53180;51.344;6.152;2022-09-30T06:42:02;5.60;;;4.03;;
33270;SDS011;53180;51.344;6.152;2022-09-30T06:44:31;5.55;;;4.38;;
33270;SDS011;53180;51.344;6.152;2022-09-30T06:47:09;5.38;;;4.07;;
33270;SDS011;53180;51.344;6.152;2022-09-30T06:49:50;5.20;;;4.53;;
33270;SDS011;53180;51.344;6.152;2022-09-30T06:52:23;6.15;;;4.65;;
33270;SDS011;53180;51.344;6.152;2022-09-30T06:54:54;5.35;;;3.97;;
33270;SDS011;53180;51.344;6.152;2022-09-30T06:57:22;6.93;;;3.80;;
33270;SDS011;53180;51.344;6.152;2022-09-30T06:59:53;6.30;;;3.95;;
33270;SDS011;53180;51.344;6.152;2022-09-30T07:02:21;4.78;;;3.80;;
33270;SDS011;53180;51.344;6.152;2022-09-30T07:04:50;10.25;;;4.18;;
33270;SDS011;53180;51.344;6.152;2022-09-30T07:07:18;5.32;;;3.92;;
33270;SDS011;53180;51.344;6.152;2022-09-30T07:09:47;6.28;;;4.90;;
33270;SDS011;53180;51.344;6.152;2022-09-30T07:12:17;6.38;;;4.65;;
33270;SDS011;53180;51.344;6.152;2022-09-30T07:14:45;5.63;;;4.43;;
33270;SDS011;53180;51.344;6.152;2022-09-30T07:17:13;5.65;;;4.05;;
33270;SDS011;53180;51.344;6.152;2022-09-30T07:19:42;5.85;;;4.45;;
33270;SDS011;53180;51.344;6.152;2022-09-30T07:22:10;7.88;;;4.95;;
33270;SDS011;53180;51.344;6.152;2022-09-30T07:24:55;5.93;;;4.38;;
33270;SDS011;53180;51.344;6.152;2022-09-30T07:27:26;6.45;;;4.45;;
33270;SDS011;53180;51.344;6.152;2022-09-30T07:29:56;8.57;;;4.00;;
33270;SDS011;53180;51.344;6.152;2022-09-30T07:32:44;7.55;;;5.38;;
33270;SDS011;53180;51.344;6.152;2022-09-30T07:35:12;8.63;;;5.18;;
33270;SDS011;53180;51.344;6.152;2022-09-30T07:37:41;6.57;;;4.78;;
33270;SDS011;53180;51.344;6.152;2022-09-30T07:40:10;6.95;;;5.03;;
33270;SDS011;53180;51.344;6.152;2022-09-30T07:42:39;7.07;;;5.00;;
33270;SDS011;53180;51.344;6.152;2022-09-30T07:45:11;7.22;;;4.88;;
33270;SDS011;53180;51.344;6.152;2022-09-30T07:47:41;7.57;;;5.22;;
33270;SDS011;53180;51.344;6.152;2022-09-30T07:50:09;7.28;;;4.82;;
33270;SDS011;53180;51.344;6.152;2022-09-30T07:52:40;10.07;;;6.35;;
33270;SDS011;53180;51.344;6.152;2022-09-30T07:55:09;10.77;;;6.45;;
33270;SDS011;53180;51.344;6.152;2022-09-30T07:57:37;9.35;;;5.03;;
33270;SDS011;53180;51.344;6.152;2022-09-30T08:00:07;8.88;;;5.88;;
33270;SDS011;53180;51.344;6.152;2022-09-30T08:02:57;9.48;;;5.50;;
33270;SDS011;53180;51.344;6.152;2022-09-30T08:05:25;7.00;;;5.47;;
33270;SDS011;53180;51.344;6.152;2022-09-30T08:07:53;8.57;;;5.85;;
33270;SDS011;53180;51.344;6.152;2022-09-30T08:10:21;8.05;;;5.25;;
33270;SDS011;53180;51.344;6.152;2022-09-30T08:12:51;8.52;;;5.20;;
33270;SDS011;53180;51.344;6.152;2022-09-30T08:15:24;10.77;;;5.70;;
33270;SDS011;53180;51.344;6.152;2022-09-30T08:17:52;8.48;;;6.20;;
33270;SDS011;53180;51.344;6.152;2022-09-30T08:20:21;7.22;;;5.25;;
33270;SDS011;53180;51.344;6.152;2022-09-30T08:22:50;12.40;;;6.85;;
33270;SDS011;53180;51.344;6.152;2022-09-30T08:25:19;7.57;;;5.30;;
33270;SDS011;53180;51.344;6.152;2022-09-30T08:27:49;10.85;;;6.05;;
33270;SDS011;53180;51.344;6.152;2022-09-30T08:30:18;7.55;;;5.35;;
33270;SDS011;53180;51.344;6.152;2022-09-30T08:32:47;7.45;;;5.60;;
33270;SDS011;53180;51.344;6.152;2022-09-30T08:35:15;13.00;;;6.38;;
33270;SDS011;53180;51.344;6.152;2022-09-30T08:37:43;7.47;;;5.72;;
33270;SDS011;53180;51.344;6.152;2022-09-30T08:40:16;9.88;;;6.18;;
33270;SDS011;53180;51.344;6.152;2022-09-30T08:45:44;9.77;;;6.40;;
33270;SDS011;53180;51.344;6.152;2022-09-30T08:48:26;8.27;;;5.78;;
33270;SDS011;53180;51.344;6.152;2022-09-30T08:51:08;11.05;;;6.13;;
33270;SDS011;53180;51.344;6.152;2022-09-30T08:53:58;10.05;;;6.22;;
33270;SDS011;53180;51.344;6.152;2022-09-30T08:56:30;10.15;;;5.88;;
33270;SDS011;53180;51.344;6.152;2022-09-30T08:59:00;9.75;;;6.55;;
33270;SDS011;53180;51.344;6.152;2022-09-30T09:01:37;8.55;;;5.45;;
33270;SDS011;53180;51.344;6.152;2022-09-30T09:04:10;10.50;;;5.90;;
33270;SDS011;53180;51.344;6.152;2022-09-30T09:06:41;9.93;;;6.70;;
33270;SDS011;53180;51.344;6.152;2022-09-30T09:09:22;9.90;;;6.72;;
33270;SDS011;53180;51.344;6.152;2022-09-30T09:12:06;8.68;;;5.82;;
33270;SDS011;53180;51.344;6.152;2022-09-30T09:14:54;7.60;;;5.28;;
33270;SDS011;53180;51.344;6.152;2022-09-30T09:17:56;7.70;;;5.30;;
33270;SDS011;53180;51.344;6.152;2022-09-30T09:20:52;8.27;;;5.28;;
33270;SDS011;53180;51.344;6.152;2022-09-30T09:23:23;8.20;;;5.63;;
33270;SDS011;53180;51.344;6.152;2022-09-30T09:25:53;7.50;;;4.95;;
33270;SDS011;53180;51.344;6.152;2022-09-30T09:28:24;7.13;;;5.30;;
33270;SDS011;53180;51.344;6.152;2022-09-30T09:31:02;8.18;;;5.72;;
33270;SDS011;53180;51.344;6.152;2022-09-30T09:33:33;9.20;;;5.57;;
33270;SDS011;53180;51.344;6.152;2022-09-30T09:36:16;8.27;;;5.20;;
33270;SDS011;53180;51.344;6.152;2022-09-30T09:39:01;7.20;;;4.60;;
33270;SDS011;53180;51.344;6.152;2022-09-30T09:41:47;9.60;;;5.47;;
33270;SDS011;53180;51.344;6.152;2022-09-30T09:44:25;8.25;;;5.25;;
33270;SDS011;53180;51.344;6.152;2022-09-30T09:47:03;8.60;;;4.80;;
33270;SDS011;53180;51.344;6.152;2022-09-30T09:49:41;9.20;;;5.07;;
33270;SDS011;53180;51.344;6.152;2022-09-30T09:52:28;8.80;;;4.47;;
33270;SDS011;53180;51.344;6.152;2022-09-30T09:55:29;9.13;;;4.80;;
33270;SDS011;53180;51.344;6.152;2022-09-30T09:58:04;6.85;;;4.80;;
33270;SDS011;53180;51.344;6.152;2022-09-30T10:00:39;8.27;;;4.93;;
33270;SDS011;53180;51.344;6.152;2022-09-30T10:03:34;6.78;;;4.85;;
33270;SDS011;53180;51.344;6.152;2022-09-30T10:06:05;7.32;;;4.75;;
33270;SDS011;53180;51.344;6.152;2022-09-30T10:08:38;9.15;;;5.70;;
33270;SDS011;53180;51.344;6.152;2022-09-30T10:11:21;9.38;;;5.53;;
33270;SDS011;53180;51.344;6.152;2022-09-30T10:13:51;7.70;;;5.10;;
33270;SDS011;53180;51.344;6.152;2022-09-30T10:16:25;9.18;;;5.07;;
33270;SDS011;53180;51.344;6.152;2022-09-30T10:18:57;7.65;;;5.30;;
33270;SDS011;53180;51.344;6.152;2022-09-30T10:21:32;7.63;;;4.63;;
33270;SDS011;53180;51.344;6.152;2022-09-30T10:24:03;7.22;;;4.32;;
33270;SDS011;53180;51.344;6.152;2022-09-30T10:26:51;8.35;;;5.10;;
33270;SDS011;53180;51.344;6.152;2022-09-30T10:29:23;6.35;;;4.00;;
33270;SDS011;53180;51.344;6.152;2022-09-30T10:31:54;7.25;;;4.40;;
33270;SDS011;53180;51.344;6.152;2022-09-30T10:34:25;6.22;;;4.25;;
33270;SDS011;53180;51.344;6.152;2022-09-30T10:37:00;6.30;;;4.20;;
33270;SDS011;53180;51.344;6.152;2022-09-30T10:39:35;6.63;;;3.92;;
33270;SDS011;53180;51.344;6.152;2022-09-30T10:42:06;6.10;;;3.42;;
33270;SDS011;53180;51.344;6.152;2022-09-30T10:44:41;5.70;;;3.88;;
33270;SDS011;53180;51.344;6.152;2022-09-30T10:47:12;5.07;;;3.28;;
33270;SDS011;53180;51.344;6.152;2022-09-30T10:49:44;5.97;;;3.13;;
33270;SDS011;53180;51.344;6.152;2022-09-30T10:52:18;4.68;;;3.15;;
33270;SDS011;53180;51.344;6.152;2022-09-30T10:54:50;4.10;;;2.30;;
33270;SDS011;53180;51.344;6.152;2022-09-30T10:57:22;4.00;;;2.65;;
33270;SDS011;53180;51.344;6.152;2022-09-30T10:59:54;3.13;;;2.35;;
33270;SDS011;53180;51.344;6.152;2022-09-30T11:02:29;5.63;;;3.22;;
33270;SDS011;53180;51.344;6.152;2022-09-30T11:05:04;5.03;;;2.78;;
33270;SDS011;53180;51.344;6.152;2022-09-30T11:07:43;3.97;;;2.53;;
33270;SDS011;53180;51.344;6.152;2022-09-30T11:10:25;6.22;;;2.67;;
33270;SDS011;53180;51.344;6.152;2022-09-30T11:13:03;4.10;;;2.85;;
33270;SDS011;53180;51.344;6.152;2022-09-30T11:15:41;5.38;;;2.88;;
33270;SDS011;53180;51.344;6.152;2022-09-30T11:18:21;5.28;;;2.83;;
33270;SDS011;53180;51.344;6.152;2022-09-30T11:20:56;3.35;;;2.25;;
33270;SDS011;53180;51.344;6.152;2022-09-30T11:23:31;2.67;;;1.90;;
33270;SDS011;53180;51.344;6.152;2022-09-30T11:26:05;2.65;;;1.90;;
33270;SDS011;53180;51.344;6.152;2022-09-30T11:28:50;2.60;;;1.48;;
33270;SDS011;53180;51.344;6.152;2022-09-30T11:31:34;2.75;;;1.88;;
33270;SDS011;53180;51.344;6.152;2022-09-30T11:34:17;3.83;;;1.85;;
33270;SDS011;53180;51.344;6.152;2022-09-30T11:37:00;2.95;;;1.90;;
33270;SDS011;53180;51.344;6.152;2022-09-30T11:39:59;4.03;;;2.38;;
33270;SDS011;53180;51.344;6.152;2022-09-30T11:42:51;4.10;;;1.98;;
33270;SDS011;53180;51.344;6.152;2022-09-30T11:49:11;3.58;;;2.10;;
33270;SDS011;53180;51.344;6.152;2022-09-30T11:52:15;4.93;;;2.70;;
33270;SDS011;53180;51.344;6.152;2022-09-30T11:57:41;3.45;;;2.22;;
33270;SDS011;53180;51.344;6.152;2022-09-30T12:00:16;5.20;;;2.75;;
33270;SDS011;53180;51.344;6.152;2022-09-30T12:02:47;4.00;;;2.25;;
33270;SDS011;53180;51.344;6.152;2022-09-30T12:05:19;5.90;;;3.10;;
33270;SDS011;53180;51.344;6.152;2022-09-30T12:07:53;7.22;;;3.00;;
33270;SDS011;53180;51.344;6.152;2022-09-30T12:10:31;5.55;;;3.20;;
33270;SDS011;53180;51.344;6.152;2022-09-30T12:13:16;4.03;;;2.50;;
33270;SDS011;53180;51.344;6.152;2022-09-30T12:15:50;5.07;;;2.97;;
33270;SDS011;53180;51.344;6.152;2022-09-30T12:18:21;5.47;;;3.40;;
33270;SDS011;53180;51.344;6.152;2022-09-30T12:20:57;6.63;;;2.90;;
33270;SDS011;53180;51.344;6.152;2022-09-30T12:23:30;4.78;;;3.10;;
33270;SDS011;53180;51.344;6.152;2022-09-30T12:26:06;4.03;;;2.50;;
33270;SDS011;53180;51.344;6.152;2022-09-30T12:28:35;4.45;;;2.67;;
33270;SDS011;53180;51.344;6.152;2022-09-30T12:34:48;5.13;;;2.97;;
33270;SDS011;53180;51.344;6.152;2022-09-30T12:37:32;5.28;;;2.92;;
33270;SDS011;53180;51.344;6.152;2022-09-30T12:40:23;3.95;;;2.67;;
33270;SDS011;53180;51.344;6.152;2022-09-30T12:43:12;3.80;;;2.40;;
33270;SDS011;53180;51.344;6.152;2022-09-30T12:48:51;4.28;;;2.40;;
33270;SDS011;53180;51.344;6.152;2022-09-30T12:51:25;3.20;;;2.15;;
33270;SDS011;53180;51.344;6.152;2022-09-30T12:53:58;5.30;;;2.35;;
33270;SDS011;53180;51.344;6.152;2022-09-30T12:56:31;4.35;;;2.33;;
33270;SDS011;53180;51.344;6.152;2022-09-30T12:59:04;3.72;;;2.08;;
33270;SDS011;53180;51.344;6.152;2022-09-30T13:01:35;3.75;;;1.90;;
33270;SDS011;53180;51.344;6.152;2022-09-30T13:04:09;3.35;;;2.10;;
33270;SDS011;53180;51.344;6.152;2022-09-30T13:07:04;2.53;;;1.58;;
33270;SDS011;53180;51.344;6.152;2022-09-30T13:10:00;7.90;;;2.33;;
33270;SDS011;53180;51.344;6.152;2022-09-30T13:15:44;3.30;;;1.60;;
33270;SDS011;53180;51.344;6.152;2022-09-30T13:21:24;2.70;;;1.67;;
33270;SDS011;53180;51.344;6.152;2022-09-30T13:23:57;3.28;;;1.65;;
33270;SDS011;53180;51.344;6.152;2022-09-30T13:26:34;3.72;;;1.70;;
33270;SDS011;53180;51.344;6.152;2022-09-30T13:32:07;3.35;;;1.35;;
33270;SDS011;53180;51.344;6.152;2022-09-30T13:34:55;3.47;;;1.27;;
33270;SDS011;53180;51.344;6.152;2022-09-30T13:37:35;1.55;;;0.95;;
33270;SDS011;53180;51.344;6.152;2022-09-30T13:40:13;2.65;;;1.20;;
33270;SDS011;53180;51.344;6.152;2022-09-30T13:43:09;2.67;;;1.20;;
33270;SDS011;53180;51.344;6.152;2022-09-30T13:45:43;1.83;;;1.17;;
33270;SDS011;53180;51.344;6.152;2022-09-30T13:48:17;7.63;;;4.15;;
33270;SDS011;53180;51.344;6.152;2022-09-30T13:50:49;2.47;;;1.27;;
33270;SDS011;53180;51.344;6.152;2022-09-30T13:53:21;2.25;;;1.30;;
33270;SDS011;53180;51.344;6.152;2022-09-30T13:55:57;3.55;;;2.10;;
33270;SDS011;53180;51.344;6.152;2022-09-30T13:58:34;1.13;;;0.80;;
33270;SDS011;53180;51.344;6.152;2022-09-30T14:01:28;1.27;;;0.80;;
33270;SDS011;53180;51.344;6.152;2022-09-30T14:04:19;2.53;;;1.05;;
33270;SDS011;53180;51.344;6.152;2022-09-30T14:07:19;1.75;;;0.85;;
33270;SDS011;53180;51.344;6.152;2022-09-30T14:10:08;1.88;;;0.90;;
33270;SDS011;53180;51.344;6.152;2022-09-30T14:13:02;0.80;;;0.70;;
33270;SDS011;53180;51.344;6.152;2022-09-30T14:15:50;4.40;;;2.10;;
33270;SDS011;53180;51.344;6.152;2022-09-30T14:18:42;1.27;;;0.77;;
33270;SDS011;53180;51.344;6.152;2022-09-30T14:21:48;1.13;;;0.85;;
33270;SDS011;53180;51.344;6.152;2022-09-30T14:24:20;1.15;;;0.70;;
33270;SDS011;53180;51.344;6.152;2022-09-30T14:26:54;1.13;;;0.70;;
33270;SDS011;53180;51.344;6.152;2022-09-30T14:29:36;1.85;;;1.00;;
33270;SDS011;53180;51.344;6.152;2022-09-30T14:32:13;0.82;;;0.60;;
33270;SDS011;53180;51.344;6.152;2022-09-30T14:34:47;1.90;;;0.90;;
33270;SDS011;53180;51.344;6.152;2022-09-30T14:37:18;1.25;;;0.93;;
33270;SDS011;53180;51.344;6.152;2022-09-30T14:39:53;12.02;;;5.63;;
33270;SDS011;53180;51.344;6.152;2022-09-30T14:42:23;2.15;;;0.90;;
33270;SDS011;53180;51.344;6.152;2022-09-30T14:44:56;1.55;;;1.00;;
33270;SDS011;53180;51.344;6.152;2022-09-30T14:47:31;1.17;;;0.70;;
33270;SDS011;53180;51.344;6.152;2022-09-30T14:50:05;0.75;;;0.50;;
33270;SDS011;53180;51.344;6.152;2022-09-30T14:52:41;0.47;;;0.47;;
33270;SDS011;53180;51.344;6.152;2022-09-30T14:55:18;0.93;;;0.70;;
33270;SDS011;53180;51.344;6.152;2022-09-30T14:57:52;0.80;;;0.60;;
33270;SDS011;53180;51.344;6.152;2022-09-30T15:00:39;1.05;;;0.68;;
33270;SDS011;53180;51.344;6.152;2022-09-30T15:03:09;0.60;;;0.60;;
33270;SDS011;53180;51.344;6.152;2022-09-30T15:05:40;0.68;;;0.50;;
33270;SDS011;53180;51.344;6.152;2022-09-30T15:08:09;3.05;;;0.65;;
33270;SDS011;53180;51.344;6.152;2022-09-30T15:10:38;1.35;;;0.68;;
33270;SDS011;53180;51.344;6.152;2022-09-30T15:13:14;0.73;;;0.50;;
33270;SDS011;53180;51.344;6.152;2022-09-30T15:15:45;0.40;;;0.40;;
33270;SDS011;53180;51.344;6.152;2022-09-30T15:18:23;0.52;;;0.50;;
33270;SDS011;53180;51.344;6.152;2022-09-30T15:21:05;0.88;;;0.50;;
33270;SDS011;53180;51.344;6.152;2022-09-30T15:23:38;0.60;;;0.40;;
33270;SDS011;53180;51.344;6.152;2022-09-30T15:26:10;0.52;;;0.40;;
33270;SDS011;53180;51.344;6.152;2022-09-30T15:28:39;0.63;;;0.50;;
33270;SDS011;53180;51.344;6.152;2022-09-30T15:31:12;0.38;;;0.38;;
33270;SDS011;53180;51.344;6.152;2022-09-30T15:33:48;0.73;;;0.52;;
33270;SDS011;53180;51.344;6.152;2022-09-30T15:36:27;0.30;;;0.30;;
33270;SDS011;53180;51.344;6.152;2022-09-30T15:38:56;0.40;;;0.40;;
33270;SDS011;53180;51.344;6.152;2022-09-30T15:41:24;1.02;;;0.65;;
33270;SDS011;53180;51.344;6.152;2022-09-30T15:47:04;1.50;;;0.63;;
33270;SDS011;53180;51.344;6.152;2022-09-30T15:52:27;0.80;;;0.50;;
33270;SDS011;53180;51.344;6.152;2022-09-30T15:55:02;1.70;;;0.68;;
33270;SDS011;53180;51.344;6.152;2022-09-30T16:01:12;0.52;;;0.52;;
33270;SDS011;53180;51.344;6.152;2022-09-30T16:03:48;0.32;;;0.32;;
33270;SDS011;53180;51.344;6.152;2022-09-30T16:06:21;0.65;;;0.50;;
33270;SDS011;53180;51.344;6.152;2022-09-30T16:08:56;1.02;;;0.60;;
33270;SDS011;53180;51.344;6.152;2022-09-30T16:11:30;0.50;;;0.50;;
33270;SDS011;53180;51.344;6.152;2022-09-30T16:14:02;0.90;;;0.73;;
33270;SDS011;53180;51.344;6.152;2022-09-30T16:16:35;1.35;;;0.98;;
33270;SDS011;53180;51.344;6.152;2022-09-30T16:19:05;1.50;;;0.70;;
33270;SDS011;53180;51.344;6.152;2022-09-30T16:21:44;0.93;;;0.60;;
33270;SDS011;53180;51.344;6.152;2022-09-30T16:27:23;0.40;;;0.30;;
33270;SDS011;53180;51.344;6.152;2022-09-30T16:29:56;0.60;;;0.60;;